sensor_id;sensor_type;location;lat;lon;timestamp;P1;durP1;ratioP1;P2;durP2;ratioP2
49946;SDS011;35839;48.662;13.300;2023-07-24T04:30:39;17.05;;;9.63;;
49946;SDS011;35839;48.662;13.300;2023-07-24T04:33:05;14.05;;;8.75;;
49946;SDS011;35839;48.662;13.300;2023-07-24T04:35:30;17.10;;;8.77;;
49946;SDS011;35839;48.662;13.300;2023-07-24T04:37:55;17.30;;;10.07;;
49946;SDS011;35839;48.662;13.300;2023-07-24T04:40:22;12.68;;;9.40;;
49946;SDS011;35839;48.662;13.300;2023-07-24T04:42:47;12.90;;;8.73;;
49946;SDS011;35839;48.662;13.300;2023-07-24T04:45:12;22.05;;;8.95;;
49946;SDS011;35839;48.662;13.300;2023-07-24T04:47:38;15.30;;;9.55;;
49946;SDS011;35839;48.662;13.300;2023-07-24T04:50:04;16.35;;;10.20;;
49946;SDS011;35839;48.662;13.300;2023-07-24T04:52:29;15.00;;;9.18;;
49946;SDS011;35839;48.662;13.300;2023-07-24T04:54:54;13.85;;;7.95;;
49946;SDS011;35839;48.662;13.300;2023-07-24T04:57:20;11.80;;;8.40;;
49946;SDS011;35839;48.662;13.300;2023-07-24T04:59:45;17.55;;;9.40;;
49946;SDS011;35839;48.662;13.300;2023-07-24T05:02:11;14.25;;;9.85;;
49946;SDS011;35839;48.662;13.300;2023-07-24T05:04:36;15.73;;;9.02;;
49946;SDS011;35839;48.662;13.300;2023-07-24T05:07:02;15.48;;;9.90;;
49946;SDS011;35839;48.662;13.300;2023-07-24T05:09:27;19.95;;;10.27;;
49946;SDS011;35839;48.662;13.300;2023-07-24T05:11:52;15.43;;;9.70;;
49946;SDS011;35839;48.662;13.300;2023-07-24T05:14:18;12.23;;;8.52;;
49946;SDS011;35839;48.662;13.300;2023-07-24T05:16:43;15.98;;;9.48;;
49946;SDS011;35839;48.662;13.300;2023-07-24T05:19:08;20.85;;;10.30;;
49946;SDS011;35839;48.662;13.300;2023-07-24T05:21:33;17.55;;;10.07;;
49946;SDS011;35839;48.662;13.300;2023-07-24T05:23:59;13.48;;;9.43;;
49946;SDS011;35839;48.662;13.300;2023-07-24T05:26:24;14.73;;;9.07;;
49946;SDS011;35839;48.662;13.300;2023-07-24T05:28:50;15.98;;;10.38;;
49946;SDS011;35839;48.662;13.300;2023-07-24T05:31:15;16.33;;;9.85;;
49946;SDS011;35839;48.662;13.300;2023-07-24T05:33:40;13.80;;;9.00;;
49946;SDS011;35839;48.662;13.300;2023-07-24T05:36:05;14.85;;;9.07;;
49946;SDS011;35839;48.662;13.300;2023-07-24T05:38:31;14.20;;;9.88;;
49946;SDS011;35839;48.662;13.300;2023-07-24T05:41:00;15.80;;;8.68;;
49946;SDS011;35839;48.662;13.300;2023-07-24T05:43:27;12.40;;;8.80;;
49946;SDS011;35839;48.662;13.300;2023-07-24T05:45:54;14.45;;;9.50;;
49946;SDS011;35839;48.662;13.300;2023-07-24T05:48:21;12.98;;;9.00;;
49946;SDS011;35839;48.662;13.300;2023-07-24T05:50:46;16.35;;;9.73;;
49946;SDS011;35839;48.662;13.300;2023-07-24T05:53:12;14.70;;;9.52;;
49946;SDS011;35839;48.662;13.300;2023-07-24T05:55:38;16.40;;;9.52;;
49946;SDS011;35839;48.662;13.300;2023-07-24T05:58:03;16.75;;;10.25;;
49946;SDS011;35839;48.662;13.300;2023-07-24T06:00:28;15.52;;;9.15;;
49946;SDS011;35839;48.662;13.300;2023-07-24T06:02:54;13.15;;;9.82;;
49946;SDS011;35839;48.662;13.300;2023-07-24T06:05:19;14.20;;;9.77;;
49946;SDS011;35839;48.662;13.300;2023-07-24T06:07:45;14.38;;;9.88;;
49946;SDS011;35839;48.662;13.300;2023-07-24T06:10:13;16.50;;;9.82;;
49946;SDS011;35839;48.662;13.300;2023-07-24T06:12:39;19.90;;;10.50;;
49946;SDS011;35839;48.662;13.300;2023-07-24T06:15:04;14.65;;;9.43;;
49946;SDS011;35839;48.662;13.300;2023-07-24T06:17:30;16.88;;;10.30;;
49946;SDS011;35839;48.662;13.300;2023-07-24T06:19:56;15.52;;;9.82;;
49946;SDS011;35839;48.662;13.300;2023-07-24T06:22:21;14.77;;;9.30;;
49946;SDS011;35839;48.662;13.300;2023-07-24T06:24:47;12.38;;;8.95;;
49946;SDS011;35839;48.662;13.300;2023-07-24T06:27:12;21.58;;;10.02;;
49946;SDS011;35839;48.662;13.300;2023-07-24T06:29:38;17.45;;;9.75;;
49946;SDS011;35839;48.662;13.300;2023-07-24T06:32:03;14.10;;;9.48;;
49946;SDS011;35839;48.662;13.300;2023-07-24T06:34:29;15.20;;;9.15;;
49946;SDS011;35839;48.662;13.300;2023-07-24T06:36:54;15.40;;;9.00;;
49946;SDS011;35839;48.662;13.300;2023-07-24T06:39:19;24.40;;;9.70;;
49946;SDS011;35839;48.662;13.300;2023-07-24T06:41:45;32.08;;;10.88;;
49946;SDS011;35839;48.662;13.300;2023-07-24T06:44:10;24.30;;;9.90;;
49946;SDS011;35839;48.662;13.300;2023-07-24T06:46:36;27.38;;;10.77;;
49946;SDS011;35839;48.662;13.300;2023-07-24T06:49:01;15.00;;;9.05;;
49946;SDS011;35839;48.662;13.300;2023-07-24T06:51:26;17.38;;;9.40;;
49946;SDS011;35839;48.662;13.300;2023-07-24T06:53:52;14.63;;;9.32;;
49946;SDS011;35839;48.662;13.300;2023-07-24T06:56:17;12.98;;;8.70;;
49946;SDS011;35839;48.662;13.300;2023-07-24T06:58:42;14.40;;;9.20;;
49946;SDS011;35839;48.662;13.300;2023-07-24T07:01:07;14.38;;;9.57;;
49946;SDS011;35839;48.662;13.300;2023-07-24T07:03:33;15.43;;;9.15;;
49946;SDS011;35839;48.662;13.300;2023-07-24T07:06:02;17.00;;;8.73;;
49946;SDS011;35839;48.662;13.300;2023-07-24T07:08:28;11.98;;;8.52;;
49946;SDS011;35839;48.662;13.300;2023-07-24T07:10:58;14.63;;;8.35;;
49946;SDS011;35839;48.662;13.300;2023-07-24T07:13:24;13.32;;;9.50;;
49946;SDS011;35839;48.662;13.300;2023-07-24T07:15:49;15.57;;;9.43;;
49946;SDS011;35839;48.662;13.300;2023-07-24T07:18:15;13.80;;;8.60;;
49946;SDS011;35839;48.662;13.300;2023-07-24T07:20:46;15.32;;;9.32;;
49946;SDS011;35839;48.662;13.300;2023-07-24T07:23:16;10.93;;;7.57;;
49946;SDS011;35839;48.662;13.300;2023-07-24T07:25:42;13.43;;;8.27;;
49946;SDS011;35839;48.662;13.300;2023-07-24T07:28:13;14.57;;;9.30;;
49946;SDS011;35839;48.662;13.300;2023-07-24T07:30:40;14.63;;;8.52;;
49946;SDS011;35839;48.662;13.300;2023-07-24T07:33:05;15.43;;;9.27;;
49946;SDS011;35839;48.662;13.300;2023-07-24T07:35:31;11.88;;;8.00;;
49946;SDS011;35839;48.662;13.300;2023-07-24T07:37:57;12.93;;;9.18;;
49946;SDS011;35839;48.662;13.300;2023-07-24T07:40:23;11.77;;;8.35;;
49946;SDS011;35839;48.662;13.300;2023-07-24T07:42:48;13.57;;;9.07;;
49946;SDS011;35839;48.662;13.300;2023-07-24T07:45:14;12.02;;;9.30;;
49946;SDS011;35839;48.662;13.300;2023-07-24T07:47:39;11.73;;;8.55;;
49946;SDS011;35839;48.662;13.300;2023-07-24T07:50:05;13.75;;;9.13;;
49946;SDS011;35839;48.662;13.300;2023-07-24T07:52:30;12.20;;;9.48;;
49946;SDS011;35839;48.662;13.300;2023-07-24T07:54:55;11.73;;;7.80;;
49946;SDS011;35839;48.662;13.300;2023-07-24T07:57:21;10.98;;;8.20;;
49946;SDS011;35839;48.662;13.300;2023-07-24T07:59:46;11.68;;;8.75;;
49946;SDS011;35839;48.662;13.300;2023-07-24T08:02:11;13.88;;;8.65;;
49946;SDS011;35839;48.662;13.300;2023-07-24T08:04:37;11.95;;;8.43;;
49946;SDS011;35839;48.662;13.300;2023-07-24T08:07:02;11.32;;;8.18;;
49946;SDS011;35839;48.662;13.300;2023-07-24T08:09:28;12.27;;;8.18;;
49946;SDS011;35839;48.662;13.300;2023-07-24T08:11:53;10.40;;;7.90;;
49946;SDS011;35839;48.662;13.300;2023-07-24T08:14:19;11.20;;;8.18;;
49946;SDS011;35839;48.662;13.300;2023-07-24T08:16:44;12.73;;;8.23;;
49946;SDS011;35839;48.662;13.300;2023-07-24T08:19:12;16.13;;;8.45;;
49946;SDS011;35839;48.662;13.300;2023-07-24T08:21:37;14.93;;;8.30;;
49946;SDS011;35839;48.662;13.300;2023-07-24T08:24:04;12.68;;;8.20;;
49946;SDS011;35839;48.662;13.300;2023-07-24T08:26:29;11.27;;;7.85;;
49946;SDS011;35839;48.662;13.300;2023-07-24T08:28:55;14.23;;;8.60;;
49946;SDS011;35839;48.662;13.300;2023-07-24T08:31:20;10.85;;;7.28;;
49946;SDS011;35839;48.662;13.300;2023-07-24T08:33:45;11.70;;;8.07;;
49946;SDS011;35839;48.662;13.300;2023-07-24T08:36:10;11.07;;;7.75;;
49946;SDS011;35839;48.662;13.300;2023-07-24T08:38:37;11.50;;;8.02;;
49946;SDS011;35839;48.662;13.300;2023-07-24T08:41:03;11.68;;;8.02;;
49946;SDS011;35839;48.662;13.300;2023-07-24T08:43:31;14.10;;;8.85;;
49946;SDS011;35839;48.662;13.300;2023-07-24T08:45:57;12.38;;;7.65;;
49946;SDS011;35839;48.662;13.300;2023-07-24T08:48:25;13.73;;;8.63;;
49946;SDS011;35839;48.662;13.300;2023-07-24T08:50:51;11.68;;;7.78;;
49946;SDS011;35839;48.662;13.300;2023-07-24T08:53:18;11.45;;;8.40;;
49946;SDS011;35839;48.662;13.300;2023-07-24T08:55:45;14.63;;;8.18;;
49946;SDS011;35839;48.662;13.300;2023-07-24T08:58:13;16.70;;;8.77;;
49946;SDS011;35839;48.662;13.300;2023-07-24T09:00:39;16.27;;;8.48;;
49946;SDS011;35839;48.662;13.300;2023-07-24T09:03:04;12.60;;;7.63;;
49946;SDS011;35839;48.662;13.300;2023-07-24T09:05:30;13.63;;;8.52;;
49946;SDS011;35839;48.662;13.300;2023-07-24T09:07:55;12.60;;;8.90;;
49946;SDS011;35839;48.662;13.300;2023-07-24T09:10:24;15.18;;;8.40;;
49946;SDS011;35839;48.662;13.300;2023-07-24T09:12:52;12.60;;;7.72;;
49946;SDS011;35839;48.662;13.300;2023-07-24T09:15:17;11.73;;;8.15;;
49946;SDS011;35839;48.662;13.300;2023-07-24T09:20:18;12.73;;;8.68;;
49946;SDS011;35839;48.662;13.300;2023-07-24T09:22:51;10.27;;;8.18;;
49946;SDS011;35839;48.662;13.300;2023-07-24T09:25:17;14.15;;;8.73;;
49946;SDS011;35839;48.662;13.300;2023-07-24T09:27:42;14.52;;;9.43;;
49946;SDS011;35839;48.662;13.300;2023-07-24T09:30:12;14.63;;;8.68;;
49946;SDS011;35839;48.662;13.300;2023-07-24T09:32:51;13.13;;;9.75;;
49946;SDS011;35839;48.662;13.300;2023-07-24T09:35:17;12.82;;;9.43;;
49946;SDS011;35839;48.662;13.300;2023-07-24T09:37:43;13.90;;;8.65;;
49946;SDS011;35839;48.662;13.300;2023-07-24T09:40:09;13.05;;;8.57;;
49946;SDS011;35839;48.662;13.300;2023-07-24T09:42:35;11.38;;;8.02;;
49946;SDS011;35839;48.662;13.300;2023-07-24T09:45:02;10.60;;;7.72;;
49946;SDS011;35839;48.662;13.300;2023-07-24T09:47:29;10.93;;;8.05;;
49946;SDS011;35839;48.662;13.300;2023-07-24T09:49:54;11.57;;;7.50;;
49946;SDS011;35839;48.662;13.300;2023-07-24T09:52:20;10.80;;;7.55;;
49946;SDS011;35839;48.662;13.300;2023-07-24T09:54:49;12.65;;;8.25;;
49946;SDS011;35839;48.662;13.300;2023-07-24T09:57:24;12.38;;;8.63;;
49946;SDS011;35839;48.662;13.300;2023-07-24T09:59:51;12.75;;;7.80;;
49946;SDS011;35839;48.662;13.300;2023-07-24T10:02:18;11.00;;;7.70;;
49946;SDS011;35839;48.662;13.300;2023-07-24T10:04:45;8.95;;;6.63;;
49946;SDS011;35839;48.662;13.300;2023-07-24T10:07:11;10.20;;;7.22;;
49946;SDS011;35839;48.662;13.300;2023-07-24T10:09:38;12.38;;;7.82;;
49946;SDS011;35839;48.662;13.300;2023-07-24T10:12:04;10.23;;;7.50;;
49946;SDS011;35839;48.662;13.300;2023-07-24T10:14:30;12.98;;;7.35;;
49946;SDS011;35839;48.662;13.300;2023-07-24T10:16:56;10.10;;;8.32;;
49946;SDS011;35839;48.662;13.300;2023-07-24T10:19:22;13.38;;;8.55;;
49946;SDS011;35839;48.662;13.300;2023-07-24T10:21:48;9.60;;;7.78;;
49946;SDS011;35839;48.662;13.300;2023-07-24T10:24:15;10.95;;;7.70;;
49946;SDS011;35839;48.662;13.300;2023-07-24T10:26:41;17.25;;;8.23;;
49946;SDS011;35839;48.662;13.300;2023-07-24T10:29:06;13.80;;;7.53;;
49946;SDS011;35839;48.662;13.300;2023-07-24T10:31:32;11.50;;;7.90;;
49946;SDS011;35839;48.662;13.300;2023-07-24T10:34:03;12.35;;;6.97;;
49946;SDS011;35839;48.662;13.300;2023-07-24T10:36:33;10.68;;;8.55;;
49946;SDS011;35839;48.662;13.300;2023-07-24T10:38:59;11.52;;;8.43;;
49946;SDS011;35839;48.662;13.300;2023-07-24T10:41:35;10.98;;;8.10;;
49946;SDS011;35839;48.662;13.300;2023-07-24T10:44:02;14.52;;;7.55;;
49946;SDS011;35839;48.662;13.300;2023-07-24T10:46:37;11.20;;;8.10;;
49946;SDS011;35839;48.662;13.300;2023-07-24T10:49:07;12.63;;;8.18;;
49946;SDS011;35839;48.662;13.300;2023-07-24T10:51:33;11.88;;;8.38;;
49946;SDS011;35839;48.662;13.300;2023-07-24T10:54:01;11.88;;;8.13;;
49946;SDS011;35839;48.662;13.300;2023-07-24T10:56:27;12.43;;;8.13;;
49946;SDS011;35839;48.662;13.300;2023-07-24T10:58:52;10.40;;;8.15;;
49946;SDS011;35839;48.662;13.300;2023-07-24T11:01:18;11.20;;;8.15;;
49946;SDS011;35839;48.662;13.300;2023-07-24T11:03:43;10.13;;;8.27;;
49946;SDS011;35839;48.662;13.300;2023-07-24T11:06:16;12.95;;;7.88;;
49946;SDS011;35839;48.662;13.300;2023-07-24T11:08:50;12.73;;;8.77;;
49946;SDS011;35839;48.662;13.300;2023-07-24T11:11:16;11.35;;;8.55;;
49946;SDS011;35839;48.662;13.300;2023-07-24T11:13:41;10.75;;;7.78;;
49946;SDS011;35839;48.662;13.300;2023-07-24T11:16:07;11.70;;;9.18;;
49946;SDS011;35839;48.662;13.300;2023-07-24T11:18:43;11.77;;;8.27;;
49946;SDS011;35839;48.662;13.300;2023-07-24T11:21:13;13.65;;;8.88;;
49946;SDS011;35839;48.662;13.300;2023-07-24T11:23:48;12.70;;;8.30;;
49946;SDS011;35839;48.662;13.300;2023-07-24T11:26:15;10.57;;;8.13;;
49946;SDS011;35839;48.662;13.300;2023-07-24T11:28:41;10.50;;;7.60;;
49946;SDS011;35839;48.662;13.300;2023-07-24T11:31:06;11.95;;;8.73;;
49946;SDS011;35839;48.662;13.300;2023-07-24T11:33:31;13.60;;;7.50;;
49946;SDS011;35839;48.662;13.300;2023-07-24T11:35:57;10.10;;;7.43;;
49946;SDS011;35839;48.662;13.300;2023-07-24T11:38:23;13.00;;;7.97;;
49946;SDS011;35839;48.662;13.300;2023-07-24T11:40:48;13.48;;;8.60;;
49946;SDS011;35839;48.662;13.300;2023-07-24T11:43:22;18.02;;;8.05;;
49946;SDS011;35839;48.662;13.300;2023-07-24T11:45:48;10.45;;;7.88;;
49946;SDS011;35839;48.662;13.300;2023-07-24T11:48:18;13.25;;;7.68;;
49946;SDS011;35839;48.662;13.300;2023-07-24T11:50:45;10.70;;;7.53;;
49946;SDS011;35839;48.662;13.300;2023-07-24T11:53:30;11.23;;;8.05;;
49946;SDS011;35839;48.662;13.300;2023-07-24T11:55:58;14.50;;;8.73;;
49946;SDS011;35839;48.662;13.300;2023-07-24T11:58:28;12.02;;;7.80;;
49946;SDS011;35839;48.662;13.300;2023-07-24T12:00:54;11.10;;;7.68;;
49946;SDS011;35839;48.662;13.300;2023-07-24T12:03:21;9.50;;;7.20;;
49946;SDS011;35839;48.662;13.300;2023-07-24T12:05:47;10.93;;;7.75;;
49946;SDS011;35839;48.662;13.300;2023-07-24T12:08:13;10.65;;;6.85;;
49946;SDS011;35839;48.662;13.300;2023-07-24T12:10:39;12.38;;;7.78;;
49946;SDS011;35839;48.662;13.300;2023-07-24T12:13:05;10.68;;;7.88;;
49946;SDS011;35839;48.662;13.300;2023-07-24T12:15:32;12.05;;;8.35;;
49946;SDS011;35839;48.662;13.300;2023-07-24T12:20:26;10.90;;;7.50;;
49946;SDS011;35839;48.662;13.300;2023-07-24T12:22:51;9.50;;;7.72;;
49946;SDS011;35839;48.662;13.300;2023-07-24T12:25:17;9.82;;;6.95;;
49946;SDS011;35839;48.662;13.300;2023-07-24T12:27:42;12.60;;;7.68;;
49946;SDS011;35839;48.662;13.300;2023-07-24T12:30:07;12.68;;;8.55;;
49946;SDS011;35839;48.662;13.300;2023-07-24T12:32:34;11.35;;;7.63;;
49946;SDS011;35839;48.662;13.300;2023-07-24T12:34:59;10.80;;;7.15;;
49946;SDS011;35839;48.662;13.300;2023-07-24T12:37:25;9.93;;;7.50;;
49946;SDS011;35839;48.662;13.300;2023-07-24T12:39:50;14.15;;;7.40;;
49946;SDS011;35839;48.662;13.300;2023-07-24T12:42:16;9.85;;;7.10;;
49946;SDS011;35839;48.662;13.300;2023-07-24T12:44:42;7.72;;;6.10;;
49946;SDS011;35839;48.662;13.300;2023-07-24T12:47:09;8.82;;;6.82;;
49946;SDS011;35839;48.662;13.300;2023-07-24T12:49:35;8.52;;;6.53;;
49946;SDS011;35839;48.662;13.300;2023-07-24T12:52:02;8.70;;;6.40;;
49946;SDS011;35839;48.662;13.300;2023-07-24T12:54:28;9.13;;;6.87;;
49946;SDS011;35839;48.662;13.300;2023-07-24T12:56:53;7.93;;;6.45;;
49946;SDS011;35839;48.662;13.300;2023-07-24T12:59:18;11.20;;;7.47;;
49946;SDS011;35839;48.662;13.300;2023-07-24T13:01:44;9.57;;;7.03;;
49946;SDS011;35839;48.662;13.300;2023-07-24T13:04:09;8.50;;;6.35;;
49946;SDS011;35839;48.662;13.300;2023-07-24T13:06:35;10.75;;;7.22;;
49946;SDS011;35839;48.662;13.300;2023-07-24T13:09:00;10.73;;;6.75;;
49946;SDS011;35839;48.662;13.300;2023-07-24T13:11:26;12.13;;;7.10;;
49946;SDS011;35839;48.662;13.300;2023-07-24T13:13:53;8.02;;;6.40;;
49946;SDS011;35839;48.662;13.300;2023-07-24T13:16:18;19.40;;;7.40;;
49946;SDS011;35839;48.662;13.300;2023-07-24T13:18:43;8.20;;;6.47;;
49946;SDS011;35839;48.662;13.300;2023-07-24T13:21:09;7.63;;;5.97;;
49946;SDS011;35839;48.662;13.300;2023-07-24T13:23:35;8.18;;;6.70;;
49946;SDS011;35839;48.662;13.300;2023-07-24T13:26:00;8.52;;;6.47;;
49946;SDS011;35839;48.662;13.300;2023-07-24T13:28:25;9.38;;;7.18;;
49946;SDS011;35839;48.662;13.300;2023-07-24T13:30:51;6.78;;;5.93;;
49946;SDS011;35839;48.662;13.300;2023-07-24T13:33:16;7.93;;;5.97;;
49946;SDS011;35839;48.662;13.300;2023-07-24T13:35:41;6.40;;;5.22;;
49946;SDS011;35839;48.662;13.300;2023-07-24T13:38:07;8.15;;;5.53;;
49946;SDS011;35839;48.662;13.300;2023-07-24T13:43:01;8.68;;;4.93;;
49946;SDS011;35839;48.662;13.300;2023-07-24T13:45:27;6.03;;;4.63;;
49946;SDS011;35839;48.662;13.300;2023-07-24T13:47:52;7.07;;;4.63;;
49946;SDS011;35839;48.662;13.300;2023-07-24T13:50:17;7.93;;;5.55;;
49946;SDS011;35839;48.662;13.300;2023-07-24T13:52:43;6.68;;;5.00;;
49946;SDS011;35839;48.662;13.300;2023-07-24T13:55:08;8.13;;;5.85;;
49946;SDS011;35839;48.662;13.300;2023-07-24T13:57:33;8.60;;;5.80;;
49946;SDS011;35839;48.662;13.300;2023-07-24T13:59:59;10.45;;;5.95;;
49946;SDS011;35839;48.662;13.300;2023-07-24T14:02:24;12.70;;;6.45;;
49946;SDS011;35839;48.662;13.300;2023-07-24T14:04:49;7.03;;;5.88;;
49946;SDS011;35839;48.662;13.300;2023-07-24T14:07:14;10.00;;;6.43;;
49946;SDS011;35839;48.662;13.300;2023-07-24T14:09:40;6.97;;;5.75;;
49946;SDS011;35839;48.662;13.300;2023-07-24T14:12:05;9.95;;;7.47;;
49946;SDS011;35839;48.662;13.300;2023-07-24T14:14:31;9.77;;;6.95;;
49946;SDS011;35839;48.662;13.300;2023-07-24T14:16:56;9.25;;;6.82;;
49946;SDS011;35839;48.662;13.300;2023-07-24T14:19:22;9.73;;;7.22;;
49946;SDS011;35839;48.662;13.300;2023-07-24T14:21:48;8.65;;;6.65;;
49946;SDS011;35839;48.662;13.300;2023-07-24T14:24:15;9.60;;;6.90;;
49946;SDS011;35839;48.662;13.300;2023-07-24T14:26:40;10.90;;;7.05;;
49946;SDS011;35839;48.662;13.300;2023-07-24T14:29:05;8.00;;;6.78;;
49946;SDS011;35839;48.662;13.300;2023-07-24T14:31:31;9.00;;;6.57;;
49946;SDS011;35839;48.662;13.300;2023-07-24T14:33:56;10.07;;;6.15;;
49946;SDS011;35839;48.662;13.300;2023-07-24T14:36:22;8.63;;;6.20;;
49946;SDS011;35839;48.662;13.300;2023-07-24T14:38:47;9.02;;;6.15;;
49946;SDS011;35839;48.662;13.300;2023-07-24T14:41:12;10.85;;;7.18;;
49946;SDS011;35839;48.662;13.300;2023-07-24T14:43:41;10.52;;;6.75;;
49946;SDS011;35839;48.662;13.300;2023-07-24T14:46:06;8.60;;;6.65;;
49946;SDS011;35839;48.662;13.300;2023-07-24T14:48:32;11.13;;;7.47;;
49946;SDS011;35839;48.662;13.300;2023-07-24T14:50:57;9.98;;;6.75;;
49946;SDS011;35839;48.662;13.300;2023-07-24T14:53:22;9.23;;;6.78;;
49946;SDS011;35839;48.662;13.300;2023-07-24T14:55:48;10.60;;;6.45;;
49946;SDS011;35839;48.662;13.300;2023-07-24T14:58:13;9.93;;;6.82;;
49946;SDS011;35839;48.662;13.300;2023-07-24T15:00:38;12.73;;;7.32;;
49946;SDS011;35839;48.662;13.300;2023-07-24T15:03:04;12.00;;;7.45;;
49946;SDS011;35839;48.662;13.300;2023-07-24T15:05:29;10.35;;;6.70;;
49946;SDS011;35839;48.662;13.300;2023-07-24T15:07:54;11.18;;;7.45;;
49946;SDS011;35839;48.662;13.300;2023-07-24T15:10:19;9.38;;;7.15;;
49946;SDS011;35839;48.662;13.300;2023-07-24T15:12:46;10.55;;;7.75;;
49946;SDS011;35839;48.662;13.300;2023-07-24T15:15:11;9.07;;;7.50;;
49946;SDS011;35839;48.662;13.300;2023-07-24T15:17:37;8.02;;;6.30;;
49946;SDS011;35839;48.662;13.300;2023-07-24T15:20:02;9.10;;;6.55;;
49946;SDS011;35839;48.662;13.300;2023-07-24T15:22:28;10.77;;;7.57;;
49946;SDS011;35839;48.662;13.300;2023-07-24T15:24:53;10.15;;;6.93;;
49946;SDS011;35839;48.662;13.300;2023-07-24T15:27:18;14.30;;;6.88;;
49946;SDS011;35839;48.662;13.300;2023-07-24T15:29:44;10.75;;;7.00;;
49946;SDS011;35839;48.662;13.300;2023-07-24T15:32:11;13.75;;;7.90;;
49946;SDS011;35839;48.662;13.300;2023-07-24T15:34:37;13.18;;;6.90;;
49946;SDS011;35839;48.662;13.300;2023-07-24T15:37:02;10.30;;;7.35;;
49946;SDS011;35839;48.662;13.300;2023-07-24T15:39:28;10.27;;;6.88;;
49946;SDS011;35839;48.662;13.300;2023-07-24T15:41:53;9.70;;;6.95;;
49946;SDS011;35839;48.662;13.300;2023-07-24T15:44:18;8.75;;;6.30;;
49946;SDS011;35839;48.662;13.300;2023-07-24T15:46:43;6.75;;;5.47;;
49946;SDS011;35839;48.662;13.300;2023-07-24T15:49:09;12.68;;;6.95;;
49946;SDS011;35839;48.662;13.300;2023-07-24T15:51:35;8.43;;;5.82;;
49946;SDS011;35839;48.662;13.300;2023-07-24T15:54:00;11.75;;;6.90;;
49946;SDS011;35839;48.662;13.300;2023-07-24T15:56:27;11.75;;;6.13;;
49946;SDS011;35839;48.662;13.300;2023-07-24T15:58:52;10.73;;;6.43;;
49946;SDS011;35839;48.662;13.300;2023-07-24T16:01:18;8.85;;;6.03;;
49946;SDS011;35839;48.662;13.300;2023-07-24T16:03:46;7.78;;;5.93;;
49946;SDS011;35839;48.662;13.300;2023-07-24T16:06:11;14.95;;;5.93;;
49946;SDS011;35839;48.662;13.300;2023-07-24T16:08:37;28.08;;;20.85;;
49946;SDS011;35839;48.662;13.300;2023-07-24T16:11:03;7.95;;;5.32;;
49946;SDS011;35839;48.662;13.300;2023-07-24T16:13:33;7.80;;;5.50;;
49946;SDS011;35839;48.662;13.300;2023-07-24T16:16:04;13.77;;;7.15;;
49946;SDS011;35839;48.662;13.300;2023-07-24T16:18:29;7.18;;;5.20;;
49946;SDS011;35839;48.662;13.300;2023-07-24T16:20:55;7.72;;;6.00;;
49946;SDS011;35839;48.662;13.300;2023-07-24T16:23:20;7.72;;;6.35;;
49946;SDS011;35839;48.662;13.300;2023-07-24T16:25:46;7.25;;;5.80;;
49946;SDS011;35839;48.662;13.300;2023-07-24T16:28:11;7.00;;;5.60;;
49946;SDS011;35839;48.662;13.300;2023-07-24T16:30:36;6.45;;;4.55;;
49946;SDS011;35839;48.662;13.300;2023-07-24T16:33:01;9.57;;;6.07;;
49946;SDS011;35839;48.662;13.300;2023-07-24T16:35:27;8.18;;;5.57;;
49946;SDS011;35839;48.662;13.300;2023-07-24T16:37:52;5.93;;;4.72;;
49946;SDS011;35839;48.662;13.300;2023-07-24T16:40:17;7.10;;;5.88;;
49946;SDS011;35839;48.662;13.300;2023-07-24T16:42:43;6.93;;;5.45;;
49946;SDS011;35839;48.662;13.300;2023-07-24T16:45:08;7.57;;;4.95;;
49946;SDS011;35839;48.662;13.300;2023-07-24T16:47:33;9.35;;;6.25;;
49946;SDS011;35839;48.662;13.300;2023-07-24T16:49:58;7.70;;;5.40;;
49946;SDS011;35839;48.662;13.300;2023-07-24T16:52:25;8.23;;;5.03;;
49946;SDS011;35839;48.662;13.300;2023-07-24T16:54:50;8.35;;;4.93;;
49946;SDS011;35839;48.662;13.300;2023-07-24T16:57:15;5.97;;;4.82;;
49946;SDS011;35839;48.662;13.300;2023-07-24T16:59:41;9.27;;;5.18;;
49946;SDS011;35839;48.662;13.300;2023-07-24T17:02:06;6.82;;;5.07;;
49946;SDS011;35839;48.662;13.300;2023-07-24T17:04:31;6.47;;;5.35;;
49946;SDS011;35839;48.662;13.300;2023-07-24T17:06:56;10.35;;;5.72;;
49946;SDS011;35839;48.662;13.300;2023-07-24T17:09:22;9.73;;;6.32;;
49946;SDS011;35839;48.662;13.300;2023-07-24T17:11:47;7.53;;;5.75;;
49946;SDS011;35839;48.662;13.300;2023-07-24T17:14:12;10.70;;;6.15;;
49946;SDS011;35839;48.662;13.300;2023-07-24T17:16:38;9.13;;;5.82;;
49946;SDS011;35839;48.662;13.300;2023-07-24T17:19:03;8.85;;;5.57;;
49946;SDS011;35839;48.662;13.300;2023-07-24T17:21:28;9.15;;;5.90;;
49946;SDS011;35839;48.662;13.300;2023-07-24T17:23:54;7.55;;;6.05;;
49946;SDS011;35839;48.662;13.300;2023-07-24T17:26:19;7.32;;;6.18;;
49946;SDS011;35839;48.662;13.300;2023-07-24T17:28:45;6.60;;;5.18;;
49946;SDS011;35839;48.662;13.300;2023-07-24T17:31:11;7.38;;;5.30;;
49946;SDS011;35839;48.662;13.300;2023-07-24T17:33:37;6.22;;;4.60;;
49946;SDS011;35839;48.662;13.300;2023-07-24T17:36:02;8.40;;;6.05;;
49946;SDS011;35839;48.662;13.300;2023-07-24T17:38:27;10.68;;;6.25;;
49946;SDS011;35839;48.662;13.300;2023-07-24T17:40:55;8.37;;;6.23;;
49946;SDS011;35839;48.662;13.300;2023-07-24T17:43:20;10.77;;;5.80;;
49946;SDS011;35839;48.662;13.300;2023-07-24T17:45:46;7.45;;;5.55;;
49946;SDS011;35839;48.662;13.300;2023-07-24T17:48:12;7.53;;;5.38;;
49946;SDS011;35839;48.662;13.300;2023-07-24T17:50:37;9.52;;;5.82;;
49946;SDS011;35839;48.662;13.300;2023-07-24T17:53:02;8.07;;;5.88;;
49946;SDS011;35839;48.662;13.300;2023-07-24T17:55:28;7.80;;;5.95;;
49946;SDS011;35839;48.662;13.300;2023-07-24T17:57:53;12.10;;;6.20;;
49946;SDS011;35839;48.662;13.300;2023-07-24T18:00:18;14.98;;;5.32;;
49946;SDS011;35839;48.662;13.300;2023-07-24T18:02:44;8.73;;;5.07;;
49946;SDS011;35839;48.662;13.300;2023-07-24T18:05:09;10.40;;;6.20;;
49946;SDS011;35839;48.662;13.300;2023-07-24T18:07:36;10.85;;;5.38;;
49946;SDS011;35839;48.662;13.300;2023-07-24T18:10:01;11.52;;;6.30;;
49946;SDS011;35839;48.662;13.300;2023-07-24T18:12:27;11.38;;;6.32;;
49946;SDS011;35839;48.662;13.300;2023-07-24T18:14:53;15.05;;;7.43;;
49946;SDS011;35839;48.662;13.300;2023-07-24T18:17:18;9.98;;;5.25;;
49946;SDS011;35839;48.662;13.300;2023-07-24T18:19:43;7.90;;;6.18;;
49946;SDS011;35839;48.662;13.300;2023-07-24T18:22:09;9.70;;;6.25;;
49946;SDS011;35839;48.662;13.300;2023-07-24T18:24:34;7.57;;;5.03;;
49946;SDS011;35839;48.662;13.300;2023-07-24T18:26:59;6.95;;;5.43;;
49946;SDS011;35839;48.662;13.300;2023-07-24T18:29:24;8.50;;;5.30;;
49946;SDS011;35839;48.662;13.300;2023-07-24T18:31:50;8.07;;;6.00;;
49946;SDS011;35839;48.662;13.300;2023-07-24T18:34:15;8.63;;;6.05;;
49946;SDS011;35839;48.662;13.300;2023-07-24T18:36:40;8.68;;;5.68;;
49946;SDS011;35839;48.662;13.300;2023-07-24T18:39:06;7.70;;;5.20;;
49946;SDS011;35839;48.662;13.300;2023-07-24T18:41:31;7.45;;;5.65;;
49946;SDS011;35839;48.662;13.300;2023-07-24T18:43:56;9.90;;;5.70;;
49946;SDS011;35839;48.662;13.300;2023-07-24T18:46:21;7.90;;;4.82;;
49946;SDS011;35839;48.662;13.300;2023-07-24T18:48:47;9.90;;;5.75;;
49946;SDS011;35839;48.662;13.300;2023-07-24T18:51:12;9.13;;;5.57;;
49946;SDS011;35839;48.662;13.300;2023-07-24T18:53:38;7.90;;;5.45;;
49946;SDS011;35839;48.662;13.300;2023-07-24T18:56:03;6.65;;;4.95;;